Time;durP1;ratioP1;P1;durP2;ratioP2;P2;SDS_P1;SDS_P2;PMS_P1;PMS_P2;Temp;Humidity;BMP_temperature;BMP_pressure;BME280_temperature;BME280_humidity;BME280_pressure;Samples;Min_cycle;Max_cycle;Signal;HPM_P1;HPM_P2
2021/03/19 00:01:11;;;;;;;7.27;5.57;;;;;;;;;;5031649;28;20295;-61
2021/03/19 00:03:47;;;;;;;7.47;5.70;;;;;;;;;;5044397;28;20174;-61
2021/03/19 00:06:13;;;;;;;6.37;5.57;;;;;;;;;;5033606;28;20175;-64
2021/03/19 00:08:39;;;;;;;8.20;5.47;;;;;;;;;;5048433;28;20515;-61
2021/03/19 00:11:05;;;;;;;6.73;5.93;;;;;;;;;;5052893;28;20185;-61
2021/03/19 00:13:31;;;;;;;6.87;6.17;;;;;;;;;;5054836;28;20177;-62
2021/03/19 00:15:57;;;;;;;7.93;6.23;;;;;;;;;;5054260;28;20434;-61
2021/03/19 00:18:26;;;;;;;6.63;5.67;;;;;;;;;;5035932;28;20197;-61
2021/03/19 00:20:53;;;;;;;7.40;6.27;;;;;;;;;;5037085;28;20181;-61
2021/03/19 00:23:19;;;;;;;6.90;6.20;;;;;;;;;;5049322;28;20182;-61
2021/03/19 00:25:45;;;;;;;6.43;5.77;;;;;;;;;;5052545;28;20177;-62
2021/03/19 00:28:15;;;;;;;6.67;5.97;;;;;;;;;;5056872;28;20208;-62
2021/03/19 00:30:42;;;;;;;7.73;6.40;;;;;;;;;;5031879;28;20515;-61
2021/03/19 00:33:09;;;;;;;7.37;6.27;;;;;;;;;;5059444;28;20181;-62
2021/03/19 00:35:35;;;;;;;8.00;7.20;;;;;;;;;;5036251;28;20940;-61
2021/03/19 00:38:08;;;;;;;9.23;8.00;;;;;;;;;;5049682;28;20529;-61
2021/03/19 00:40:34;;;;;;;8.00;7.20;;;;;;;;;;5054527;28;20428;-62
2021/03/19 00:43:04;;;;;;;8.87;7.97;;;;;;;;;;5035984;28;20431;-63
2021/03/19 00:45:30;;;;;;;9.87;7.20;;;;;;;;;;5033330;28;20424;-62
2021/03/19 00:47:56;;;;;;;9.80;8.10;;;;;;;;;;5032300;28;20562;-62
2021/03/19 00:50:33;;;;;;;9.37;8.47;;;;;;;;;;5054135;28;20918;-62
2021/03/19 00:53:01;;;;;;;9.73;8.80;;;;;;;;;;5048267;28;20422;-62
2021/03/19 00:55:27;;;;;;;10.47;8.80;;;;;;;;;;5053353;28;20443;-62
2021/03/19 00:57:53;;;;;;;9.70;8.43;;;;;;;;;;5029975;28;20463;-61
2021/03/19 01:00:20;;;;;;;10.13;8.33;;;;;;;;;;5045500;28;20423;-61
2021/03/19 01:02:46;;;;;;;9.17;8.27;;;;;;;;;;5050468;28;20970;-61
2021/03/19 01:05:15;;;;;;;8.37;7.57;;;;;;;;;;5048004;28;20760;-62
2021/03/19 01:07:41;;;;;;;9.73;8.73;;;;;;;;;;5041198;28;20431;-61
2021/03/19 01:10:09;;;;;;;9.40;8.50;;;;;;;;;;5022834;28;20427;-62
2021/03/19 01:12:35;;;;;;;8.83;7.93;;;;;;;;;;5030447;28;20435;-61
2021/03/19 01:15:01;;;;;;;8.77;7.87;;;;;;;;;;5045222;28;20562;-63
2021/03/19 01:17:27;;;;;;;9.87;8.70;;;;;;;;;;5018973;28;20445;-62
2021/03/19 01:19:53;;;;;;;8.50;7.70;;;;;;;;;;5042485;28;20791;-61
2021/03/19 01:22:19;;;;;;;8.50;7.70;;;;;;;;;;5050440;28;20197;-61
2021/03/19 01:24:45;;;;;;;9.87;8.87;;;;;;;;;;5048220;28;20526;-62
2021/03/19 01:27:11;;;;;;;10.37;8.47;;;;;;;;;;5033419;28;20419;-64
2021/03/19 01:29:37;;;;;;;8.47;7.57;;;;;;;;;;5047307;28;20495;-62
2021/03/19 01:32:04;;;;;;;9.50;8.20;;;;;;;;;;5030339;28;20419;-62
2021/03/19 01:34:30;;;;;;;8.70;7.90;;;;;;;;;;5025248;28;20188;-61
2021/03/19 01:36:56;;;;;;;9.83;8.40;;;;;;;;;;5048397;28;20463;-61
2021/03/19 01:39:22;;;;;;;9.43;8.00;;;;;;;;;;5047677;28;20517;-62
2021/03/19 01:41:56;;;;;;;9.90;8.13;;;;;;;;;;5036073;28;20416;-63
2021/03/19 01:44:24;;;;;;;9.77;8.60;;;;;;;;;;5036930;28;20180;-62
2021/03/19 01:47:08;;;;;;;9.70;8.50;;;;;;;;;;5016255;28;20430;-61
2021/03/19 01:49:53;;;;;;;10.87;8.83;;;;;;;;;;5022200;28;20493;-62
2021/03/19 01:52:38;;;;;;;8.73;7.93;;;;;;;;;;5049549;28;20481;-62
2021/03/19 01:55:23;;;;;;;10.57;8.13;;;;;;;;;;5043660;28;20431;-62
2021/03/19 01:58:07;;;;;;;11.17;8.47;;;;;;;;;;5045840;28;20458;-64
2021/03/19 02:00:52;;;;;;;8.37;7.57;;;;;;;;;;5036714;28;20412;-62
2021/03/19 02:03:37;;;;;;;9.70;8.70;;;;;;;;;;5050844;28;20426;-61
2021/03/19 02:06:21;;;;;;;8.90;7.90;;;;;;;;;;5030251;28;20422;-61
2021/03/19 02:09:06;;;;;;;13.00;8.67;;;;;;;;;;5040335;28;20252;-62
2021/03/19 02:11:51;;;;;;;8.97;8.07;;;;;;;;;;5016961;28;20192;-62
2021/03/19 02:14:36;;;;;;;9.83;7.93;;;;;;;;;;5048477;28;20889;-62
2021/03/19 02:17:20;;;;;;;8.73;7.90;;;;;;;;;;5033903;28;20431;-64
2021/03/19 02:20:05;;;;;;;8.40;7.57;;;;;;;;;;5023303;28;21343;-62
2021/03/19 02:22:50;;;;;;;10.73;8.10;;;;;;;;;;5032564;28;20419;-62
2021/03/19 02:25:35;;;;;;;9.30;7.60;;;;;;;;;;5037472;28;20414;-62
2021/03/19 02:28:20;;;;;;;9.23;8.33;;;;;;;;;;5040476;28;20490;-62
2021/03/19 02:31:15;;;;;;;11.13;8.33;;;;;;;;;;5024724;28;20412;-62
2021/03/19 02:33:43;;;;;;;9.10;7.83;;;;;;;;;;5026708;28;20388;-62
2021/03/19 02:36:10;;;;;;;10.03;8.77;;;;;;;;;;5048832;28;20416;-62
2021/03/19 02:38:36;;;;;;;11.37;8.90;;;;;;;;;;5044719;28;20834;-62
2021/03/19 02:41:02;;;;;;;9.43;8.27;;;;;;;;;;5022550;28;20202;-64
2021/03/19 02:43:28;;;;;;;10.27;7.87;;;;;;;;;;5044862;28;20507;-62
2021/03/19 02:45:55;;;;;;;8.80;7.90;;;;;;;;;;5048279;28;20431;-62
2021/03/19 02:48:21;;;;;;;8.87;7.93;;;;;;;;;;5036878;28;20427;-62
2021/03/19 02:50:47;;;;;;;8.83;7.93;;;;;;;;;;5047526;28;20447;-61
2021/03/19 02:53:18;;;;;;;10.23;7.97;;;;;;;;;;5024904;28;20431;-62
2021/03/19 02:55:44;;;;;;;9.70;7.90;;;;;;;;;;5045128;28;20547;-62
2021/03/19 02:58:10;;;;;;;9.73;8.17;;;;;;;;;;5041731;28;20515;-62
2021/03/19 03:00:36;;;;;;;10.50;8.13;;;;;;;;;;5045587;28;20173;-61
2021/03/19 03:03:02;;;;;;;9.47;8.37;;;;;;;;;;5040669;28;20417;-62
2021/03/19 03:05:28;;;;;;;8.40;7.47;;;;;;;;;;5024970;28;20449;-62
2021/03/19 03:07:54;;;;;;;8.67;7.77;;;;;;;;;;5058253;28;20522;-62
2021/03/19 03:10:21;;;;;;;10.90;7.53;;;;;;;;;;5060787;28;20747;-62
2021/03/19 03:12:47;;;;;;;9.97;8.50;;;;;;;;;;5064907;28;21185;-62
2021/03/19 03:15:15;;;;;;;9.83;7.73;;;;;;;;;;5055735;28;20940;-62
2021/03/19 03:17:41;;;;;;;8.13;7.33;;;;;;;;;;5027608;28;20463;-62
2021/03/19 03:20:09;;;;;;;8.93;6.60;;;;;;;;;;5038296;28;20424;-62
2021/03/19 03:22:35;;;;;;;8.07;6.83;;;;;;;;;;5022941;28;20419;-62
2021/03/19 03:25:01;;;;;;;8.73;7.87;;;;;;;;;;5038860;28;20899;-62
2021/03/19 03:27:27;;;;;;;9.80;7.17;;;;;;;;;;5041675;28;20481;-62
2021/03/19 03:29:53;;;;;;;7.43;6.73;;;;;;;;;;5052017;28;20428;-62
2021/03/19 03:32:19;;;;;;;7.37;6.63;;;;;;;;;;5043621;28;20430;-62
2021/03/19 03:34:45;;;;;;;7.17;6.47;;;;;;;;;;5032260;28;20174;-62
2021/03/19 03:37:11;;;;;;;7.90;6.93;;;;;;;;;;5041389;28;20613;-62
2021/03/19 03:39:37;;;;;;;7.90;6.40;;;;;;;;;;5022973;28;20464;-61
2021/03/19 03:42:05;;;;;;;10.60;7.87;;;;;;;;;;5035558;28;20484;-62
2021/03/19 03:44:31;;;;;;;9.10;6.80;;;;;;;;;;5049858;28;20506;-64
2021/03/19 03:46:57;;;;;;;7.93;6.93;;;;;;;;;;5041465;28;20441;-62
2021/03/19 03:49:24;;;;;;;7.33;6.53;;;;;;;;;;5022297;28;20562;-64
2021/03/19 03:51:51;;;;;;;9.57;7.03;;;;;;;;;;5032675;28;20915;-61
2021/03/19 03:54:17;;;;;;;8.70;6.60;;;;;;;;;;5016055;28;20452;-62
2021/03/19 03:56:43;;;;;;;8.83;7.23;;;;;;;;;;5032568;28;20433;-62
2021/03/19 03:59:10;;;;;;;6.93;6.23;;;;;;;;;;5043520;28;20795;-61
2021/03/19 04:01:40;;;;;;;9.87;7.27;;;;;;;;;;5031873;28;20416;-61
2021/03/19 04:04:06;;;;;;;7.77;6.90;;;;;;;;;;5014995;28;20939;-61
2021/03/19 04:06:33;;;;;;;9.20;6.90;;;;;;;;;;5014569;28;20443;-63
2021/03/19 04:08:59;;;;;;;7.70;6.77;;;;;;;;;;5042987;28;20428;-62
2021/03/19 04:11:25;;;;;;;7.47;6.43;;;;;;;;;;5050976;28;20414;-61
2021/03/19 04:13:52;;;;;;;9.00;6.57;;;;;;;;;;5030247;28;20177;-62
2021/03/19 04:16:18;;;;;;;7.50;6.80;;;;;;;;;;5051075;28;20453;-62
2021/03/19 04:18:45;;;;;;;6.90;6.20;;;;;;;;;;5048601;28;20462;-62
2021/03/19 04:21:11;;;;;;;10.43;7.27;;;;;;;;;;5032654;28;20464;-61
2021/03/19 04:23:39;;;;;;;8.03;6.50;;;;;;;;;;5043724;28;20428;-61
2021/03/19 04:26:07;;;;;;;8.67;7.10;;;;;;;;;;5034602;28;20424;-62
2021/03/19 04:28:35;;;;;;;7.30;6.60;;;;;;;;;;5040211;28;20443;-63
2021/03/19 04:31:01;;;;;;;7.80;7.00;;;;;;;;;;5054559;28;20432;-60
2021/03/19 04:33:28;;;;;;;10.00;7.37;;;;;;;;;;5031487;28;20472;-61
2021/03/19 04:35:57;;;;;;;8.67;6.90;;;;;;;;;;5033328;28;20437;-61
2021/03/19 04:38:23;;;;;;;7.27;6.47;;;;;;;;;;5045454;28;20486;-61
2021/03/19 04:40:49;;;;;;;7.60;6.77;;;;;;;;;;5046234;28;20436;-61
2021/03/19 04:43:15;;;;;;;8.83;6.97;;;;;;;;;;5042072;28;20254;-61
2021/03/19 04:45:43;;;;;;;7.67;6.47;;;;;;;;;;5027772;28;20481;-61
2021/03/19 04:48:09;;;;;;;7.70;6.87;;;;;;;;;;5025158;28;20982;-61
2021/03/19 04:50:35;;;;;;;8.40;7.47;;;;;;;;;;5030745;28;20459;-61
2021/03/19 04:53:02;;;;;;;7.83;7.03;;;;;;;;;;5042221;28;20470;-61
2021/03/19 04:55:29;;;;;;;8.27;6.40;;;;;;;;;;5048733;28;20463;-62
2021/03/19 04:57:55;;;;;;;9.50;6.33;;;;;;;;;;5057088;28;20466;-61
2021/03/19 05:00:22;;;;;;;6.73;6.00;;;;;;;;;;5024629;28;20431;-61
2021/03/19 05:02:49;;;;;;;8.37;6.70;;;;;;;;;;5031496;28;20766;-62
2021/03/19 05:05:21;;;;;;;8.07;6.90;;;;;;;;;;5048194;28;20415;-61
2021/03/19 05:07:47;;;;;;;9.13;6.93;;;;;;;;;;5031391;28;20419;-61
2021/03/19 05:10:14;;;;;;;8.33;7.00;;;;;;;;;;5022112;28;20442;-61
2021/03/19 05:12:40;;;;;;;7.93;7.07;;;;;;;;;;5048538;28;20425;-61
2021/03/19 05:15:07;;;;;;;8.50;6.33;;;;;;;;;;5043794;28;20454;-60
2021/03/19 05:17:34;;;;;;;8.50;7.40;;;;;;;;;;5047440;28;20420;-61
2021/03/19 05:20:00;;;;;;;8.63;6.87;;;;;;;;;;5059165;28;20850;-61
2021/03/19 05:22:26;;;;;;;8.13;6.47;;;;;;;;;;5063271;28;20419;-61
2021/03/19 05:24:53;;;;;;;8.57;6.80;;;;;;;;;;5052427;28;20412;-61
2021/03/19 05:27:19;;;;;;;8.50;7.60;;;;;;;;;;5037233;28;20795;-63
2021/03/19 05:29:46;;;;;;;8.40;6.73;;;;;;;;;;5047930;28;20504;-61
2021/03/19 05:32:12;;;;;;;8.13;6.60;;;;;;;;;;5058317;28;20417;-61
2021/03/19 05:34:38;;;;;;;8.93;6.50;;;;;;;;;;5057426;28;20506;-61
2021/03/19 05:37:04;;;;;;;8.27;6.40;;;;;;;;;;5049738;28;20455;-62
2021/03/19 05:39:31;;;;;;;8.10;6.03;;;;;;;;;;5054670;28;20479;-62
2021/03/19 05:41:57;;;;;;;7.73;6.00;;;;;;;;;;5056659;28;20762;-62
2021/03/19 05:44:23;;;;;;;8.63;6.40;;;;;;;;;;5056814;28;20823;-61
2021/03/19 05:46:51;;;;;;;8.33;6.30;;;;;;;;;;5046022;28;20419;-62
2021/03/19 05:49:25;;;;;;;8.10;6.17;;;;;;;;;;5050922;28;20967;-62
2021/03/19 05:51:53;;;;;;;7.33;6.33;;;;;;;;;;5062857;28;20508;-61
2021/03/19 05:54:21;;;;;;;8.20;6.40;;;;;;;;;;5028864;28;20878;-61
2021/03/19 05:56:49;;;;;;;7.07;6.13;;;;;;;;;;5034852;28;20421;-61
2021/03/19 05:59:15;;;;;;;7.87;5.80;;;;;;;;;;5049134;28;20466;-61
2021/03/19 06:01:41;;;;;;;8.47;6.13;;;;;;;;;;5030888;28;20410;-61
2021/03/19 06:04:12;;;;;;;6.50;5.73;;;;;;;;;;5048298;28;20416;-61
2021/03/19 06:06:47;;;;;;;6.57;5.43;;;;;;;;;;5048984;28;20392;-61
2021/03/19 06:09:24;;;;;;;7.60;5.77;;;;;;;;;;5048882;28;20805;-61
2021/03/19 06:11:51;;;;;;;6.43;5.83;;;;;;;;;;5048199;28;20423;-62
2021/03/19 06:14:18;;;;;;;7.37;5.83;;;;;;;;;;5061504;28;20514;-61
2021/03/19 06:16:45;;;;;;;6.03;5.17;;;;;;;;;;5039129;28;20419;-61
2021/03/19 06:19:30;;;;;;;6.03;5.30;;;;;;;;;;5028795;28;20455;-61
2021/03/19 06:22:26;;;;;;;7.50;5.73;;;;;;;;;;5040136;28;20470;-61
2021/03/19 06:24:54;;;;;;;7.23;5.60;;;;;;;;;;4961186;28;20954;-61
2021/03/19 06:27:25;;;;;;;7.43;5.30;;;;;;;;;;5048520;28;20909;-61
2021/03/19 06:29:56;;;;;;;5.20;4.70;;;;;;;;;;5049105;28;20426;-61
2021/03/19 06:32:23;;;;;;;6.80;5.80;;;;;;;;;;5054000;28;20408;-61
2021/03/19 06:34:55;;;;;;;7.10;5.43;;;;;;;;;;5062790;28;20749;-62
2021/03/19 06:37:36;;;;;;;6.50;5.83;;;;;;;;;;5062469;28;20848;-61
2021/03/19 06:40:08;;;;;;;6.27;5.23;;;;;;;;;;5033942;28;20462;-62
2021/03/19 06:42:38;;;;;;;6.70;5.30;;;;;;;;;;5033283;28;20416;-61
2021/03/19 06:45:04;;;;;;;7.97;5.63;;;;;;;;;;5034508;28;20799;-61
2021/03/19 06:47:38;;;;;;;5.70;5.03;;;;;;;;;;5057921;28;20415;-63
2021/03/19 06:50:05;;;;;;;6.07;5.10;;;;;;;;;;5052053;28;20246;-60
2021/03/19 06:52:31;;;;;;;7.63;5.67;;;;;;;;;;5052331;28;20415;-61
2021/03/19 06:54:59;;;;;;;6.23;5.63;;;;;;;;;;5035083;28;20415;-61
2021/03/19 06:57:27;;;;;;;7.20;5.20;;;;;;;;;;5035856;28;20427;-62
2021/03/19 06:59:54;;;;;;;5.67;4.93;;;;;;;;;;5036314;28;20424;-61
2021/03/19 07:02:40;;;;;;;5.87;4.73;;;;;;;;;;5065931;28;20538;-61
2021/03/19 07:05:25;;;;;;;7.63;5.20;;;;;;;;;;5033850;28;20502;-61
2021/03/19 07:08:10;;;;;;;5.73;4.93;;;;;;;;;;5056342;28;20419;-61
2021/03/19 07:10:55;;;;;;;4.80;4.37;;;;;;;;;;5050434;28;20468;-62
2021/03/19 07:13:23;;;;;;;5.40;4.67;;;;;;;;;;5051234;28;20507;-62
2021/03/19 07:15:58;;;;;;;5.23;4.43;;;;;;;;;;5062486;28;20937;-62
2021/03/19 07:18:34;;;;;;;6.40;5.23;;;;;;;;;;5052944;28;20913;-61
2021/03/19 07:21:18;;;;;;;5.50;4.87;;;;;;;;;;5042786;28;20406;-61
2021/03/19 07:24:03;;;;;;;4.93;4.37;;;;;;;;;;5042069;28;20439;-61
2021/03/19 07:26:32;;;;;;;9.00;4.87;;;;;;;;;;5066696;28;20845;-61
2021/03/19 07:28:58;;;;;;;6.47;5.13;;;;;;;;;;5064209;28;20509;-61
2021/03/19 07:31:30;;;;;;;5.57;4.97;;;;;;;;;;5038872;28;20415;-61
2021/03/19 07:34:14;;;;;;;6.03;4.57;;;;;;;;;;5033252;28;20188;-62
2021/03/19 07:36:55;;;;;;;6.10;4.63;;;;;;;;;;5057347;28;20466;-61
2021/03/19 07:39:27;;;;;;;5.47;4.47;;;;;;;;;;5058430;28;20458;-62
2021/03/19 07:41:56;;;;;;;6.57;5.27;;;;;;;;;;5068963;28;20411;-61
2021/03/19 07:44:22;;;;;;;6.40;5.53;;;;;;;;;;5034030;28;20968;-62
2021/03/19 07:47:00;;;;;;;6.50;4.60;;;;;;;;;;5052138;28;20404;-62
2021/03/19 07:49:26;;;;;;;5.40;4.77;;;;;;;;;;5051506;28;20474;-61
2021/03/19 07:51:52;;;;;;;5.47;4.67;;;;;;;;;;5052055;28;20419;-61
2021/03/19 07:54:28;;;;;;;5.10;4.60;;;;;;;;;;5051519;28;20208;-61
2021/03/19 07:57:04;;;;;;;7.50;5.23;;;;;;;;;;5057610;28;20168;-61
2021/03/19 07:59:33;;;;;;;5.90;4.70;;;;;;;;;;5063732;28;21148;-63
2021/03/19 08:02:18;;;;;;;5.13;4.40;;;;;;;;;;5066263;28;20415;-61
2021/03/19 08:04:56;;;;;;;5.97;5.10;;;;;;;;;;5050894;28;20498;-61
2021/03/19 08:07:28;;;;;;;4.83;4.37;;;;;;;;;;5049953;28;20427;-61
2021/03/19 08:10:19;;;;;;;6.90;5.20;;;;;;;;;;5062885;28;20423;-61
2021/03/19 08:13:18;;;;;;;6.00;5.37;;;;;;;;;;5063114;28;20449;-61
2021/03/19 08:15:48;;;;;;;5.30;4.80;;;;;;;;;;5018895;28;20759;-61
2021/03/19 08:18:18;;;;;;;5.80;4.97;;;;;;;;;;5051339;28;20447;-61
2021/03/19 08:20:47;;;;;;;5.73;4.87;;;;;;;;;;5052597;28;20419;-61
2021/03/19 08:23:19;;;;;;;5.67;4.93;;;;;;;;;;5050358;28;20426;-61
2021/03/19 08:25:47;;;;;;;5.17;4.67;;;;;;;;;;5069305;28;20432;-61
2021/03/19 08:28:23;;;;;;;8.27;4.87;;;;;;;;;;5058692;28;20469;-61
2021/03/19 08:31:09;;;;;;;6.63;4.87;;;;;;;;;;5046119;28;20539;-61
2021/03/19 08:33:54;;;;;;;5.70;4.70;;;;;;;;;;4987410;28;20427;-61
2021/03/19 08:36:39;;;;;;;5.10;4.13;;;;;;;;;;5058536;28;20918;-61
2021/03/19 08:39:24;;;;;;;4.40;4.00;;;;;;;;;;5048699;28;20459;-61
2021/03/19 08:41:57;;;;;;;4.93;4.00;;;;;;;;;;5051493;28;20414;-61
2021/03/19 08:44:27;;;;;;;6.20;4.87;;;;;;;;;;5062320;28;20423;-61
2021/03/19 08:46:55;;;;;;;4.80;4.33;;;;;;;;;;5053617;28;20415;-59
2021/03/19 08:49:24;;;;;;;7.97;3.37;;;;;;;;;;5063178;28;20474;-60
2021/03/19 08:51:50;;;;;;;4.13;2.90;;;;;;;;;;5045726;28;20478;-60
2021/03/19 08:54:22;;;;;;;4.50;3.17;;;;;;;;;;5058542;28;20193;-61
2021/03/19 08:56:49;;;;;;;3.50;2.93;;;;;;;;;;5067576;28;20230;-60
2021/03/19 08:59:38;;;;;;;3.07;2.67;;;;;;;;;;5043179;28;20214;-60
2021/03/19 09:02:23;;;;;;;3.50;2.90;;;;;;;;;;5035451;28;20231;-60
2021/03/19 09:04:49;;;;;;;3.53;3.20;;;;;;;;;;5032900;28;20574;-59
2021/03/19 09:07:36;;;;;;;3.20;2.67;;;;;;;;;;5032689;28;20188;-59
2021/03/19 09:10:22;;;;;;;3.90;2.70;;;;;;;;;;5049481;28;20169;-60
2021/03/19 09:12:58;;;;;;;3.80;2.90;;;;;;;;;;4984205;28;20188;-60
2021/03/19 09:15:24;;;;;;;3.17;2.70;;;;;;;;;;5031930;28;20184;-59
2021/03/19 09:17:54;;;;;;;2.90;2.13;;;;;;;;;;5049233;28;20184;-60
2021/03/19 09:20:32;;;;;;;4.87;2.70;;;;;;;;;;5050624;28;20180;-59
2021/03/19 09:23:10;;;;;;;2.27;2.00;;;;;;;;;;5049367;28;20514;-59
2021/03/19 09:25:43;;;;;;;2.43;2.07;;;;;;;;;;5036634;28;21002;-59
2021/03/19 09:28:09;;;;;;;4.77;2.63;;;;;;;;;;5054653;28;20180;-59
2021/03/19 09:30:44;;;;;;;2.67;2.03;;;;;;;;;;5059500;28;20616;-60
2021/03/19 09:33:12;;;;;;;5.73;2.10;;;;;;;;;;5062467;28;20201;-59
2021/03/19 09:35:42;;;;;;;3.37;2.20;;;;;;;;;;5070238;28;20230;-59
2021/03/19 09:38:23;;;;;;;3.30;2.20;;;;;;;;;;5052141;28;20221;-59
2021/03/19 09:40:59;;;;;;;1.90;1.63;;;;;;;;;;5049420;28;20658;-59
2021/03/19 09:43:45;;;;;;;2.73;2.03;;;;;;;;;;5024832;28;20226;-60
2021/03/19 09:46:16;;;;;;;2.50;2.17;;;;;;;;;;5010145;28;20532;-60
2021/03/19 09:48:53;;;;;;;3.10;2.10;;;;;;;;;;5030132;28;20662;-59
2021/03/19 09:51:34;;;;;;;3.27;2.33;;;;;;;;;;5031312;28;20185;-60
2021/03/19 09:54:20;;;;;;;3.17;2.40;;;;;;;;;;5029391;28;20578;-59
2021/03/19 09:56:47;;;;;;;4.67;2.13;;;;;;;;;;5028084;28;20162;-59
2021/03/19 09:59:33;;;;;;;2.83;1.73;;;;;;;;;;5023691;28;20196;-60
2021/03/19 10:01:59;;;;;;;2.17;1.67;;;;;;;;;;5043622;28;20208;-60
2021/03/19 10:04:44;;;;;;;3.00;1.80;;;;;;;;;;5010909;28;20177;-58
2021/03/19 10:07:17;;;;;;;3.10;1.70;;;;;;;;;;5028996;28;20271;-58
2021/03/19 10:10:03;;;;;;;2.43;1.60;;;;;;;;;;5028536;28;20182;-58
2021/03/19 10:12:33;;;;;;;2.13;1.83;;;;;;;;;;5029277;28;20189;-58
2021/03/19 10:15:19;;;;;;;2.90;1.90;;;;;;;;;;5029337;28;20173;-60
2021/03/19 10:17:49;;;;;;;1.90;1.63;;;;;;;;;;5014719;28;20772;-59
2021/03/19 10:20:21;;;;;;;2.60;1.90;;;;;;;;;;5032892;28;20157;-58
2021/03/19 10:22:52;;;;;;;3.00;1.57;;;;;;;;;;5015543;28;20413;-58
2021/03/19 10:25:18;;;;;;;2.60;1.80;;;;;;;;;;5032424;28;20292;-58
2021/03/19 10:27:45;;;;;;;3.63;1.87;;;;;;;;;;5032509;28;20240;-60
2021/03/19 10:30:16;;;;;;;1.43;1.33;;;;;;;;;;5038829;28;20281;-60
2021/03/19 10:32:44;;;;;;;2.77;1.87;;;;;;;;;;5044300;28;20193;-61
2021/03/19 10:35:17;;;;;;;3.20;1.80;;;;;;;;;;5014760;28;20189;-59
2021/03/19 10:37:49;;;;;;;3.03;1.77;;;;;;;;;;5044262;28;20227;-60
2021/03/19 10:40:25;;;;;;;1.60;1.43;;;;;;;;;;5034133;28;20214;-60
2021/03/19 10:43:14;;;;;;;2.60;1.63;;;;;;;;;;5052063;28;20517;-61
2021/03/19 10:45:44;;;;;;;2.83;1.60;;;;;;;;;;5021924;28;20197;-60
2021/03/19 10:48:19;;;;;;;4.07;1.73;;;;;;;;;;5051967;28;20579;-60
2021/03/19 10:50:48;;;;;;;2.90;1.73;;;;;;;;;;5072509;28;20643;-59
2021/03/19 10:53:16;;;;;;;2.07;1.40;;;;;;;;;;5058669;28;20185;-60
2021/03/19 10:55:44;;;;;;;1.37;1.13;;;;;;;;;;5052637;28;20533;-59
2021/03/19 10:58:17;;;;;;;1.80;1.20;;;;;;;;;;5051715;28;20224;-59
2021/03/19 11:00:44;;;;;;;3.63;1.40;;;;;;;;;;5034566;28;20685;-59
2021/03/19 11:03:24;;;;;;;1.70;1.20;;;;;;;;;;5051695;28;20616;-59
2021/03/19 11:05:56;;;;;;;1.33;1.23;;;;;;;;;;5059320;28;20665;-59
2021/03/19 11:08:22;;;;;;;2.77;1.47;;;;;;;;;;5057356;28;20767;-60
2021/03/19 11:10:52;;;;;;;2.07;1.50;;;;;;;;;;5052388;28;20184;-60
2021/03/19 11:13:20;;;;;;;2.83;1.60;;;;;;;;;;5050928;28;20444;-63
2021/03/19 11:15:48;;;;;;;2.23;1.93;;;;;;;;;;5045404;28;20267;-59
2021/03/19 11:18:14;;;;;;;1.67;1.27;;;;;;;;;;5051488;28;20208;-61
2021/03/19 11:20:41;;;;;;;1.83;1.47;;;;;;;;;;5051048;28;20518;-61
2021/03/19 11:23:19;;;;;;;3.17;1.67;;;;;;;;;;5047465;28;20179;-60
2021/03/19 11:25:49;;;;;;;2.83;1.50;;;;;;;;;;5046937;28;20225;-60
2021/03/19 11:28:22;;;;;;;3.47;1.90;;;;;;;;;;5058108;28;20299;-61
2021/03/19 11:30:48;;;;;;;3.13;1.60;;;;;;;;;;5058659;28;20521;-60
2021/03/19 11:33:19;;;;;;;3.53;1.83;;;;;;;;;;5058213;28;20177;-59
2021/03/19 11:36:04;;;;;;;1.53;1.20;;;;;;;;;;5033575;28;20681;-60
2021/03/19 11:38:35;;;;;;;1.60;1.10;;;;;;;;;;5050499;28;20801;-59
2021/03/19 11:41:02;;;;;;;3.00;1.23;;;;;;;;;;5049788;28;20173;-60
2021/03/19 11:43:28;;;;;;;2.10;1.43;;;;;;;;;;5045071;28;20204;-59
2021/03/19 11:45:56;;;;;;;2.00;1.80;;;;;;;;;;5039906;28;20231;-60
2021/03/19 11:48:28;;;;;;;1.40;1.30;;;;;;;;;;5053326;28;20616;-59
2021/03/19 11:51:09;;;;;;;1.13;1.03;;;;;;;;;;5041644;28;20227;-61
2021/03/19 11:53:35;;;;;;;1.70;1.40;;;;;;;;;;5051771;28;20407;-59
2021/03/19 11:56:02;;;;;;;1.60;1.40;;;;;;;;;;5066636;28;20184;-59
2021/03/19 11:58:29;;;;;;;1.57;1.20;;;;;;;;;;5058262;28;20197;-59
2021/03/19 12:00:55;;;;;;;1.60;1.43;;;;;;;;;;5044601;28;20169;-60
2021/03/19 12:03:27;;;;;;;1.10;1.00;;;;;;;;;;5053203;28;20628;-61
2021/03/19 12:05:53;;;;;;;2.67;1.47;;;;;;;;;;5039875;28;20188;-60
2021/03/19 12:08:19;;;;;;;1.23;1.13;;;;;;;;;;5058605;28;20196;-60
2021/03/19 12:10:45;;;;;;;1.70;1.20;;;;;;;;;;5035205;28;20189;-60
2021/03/19 12:13:14;;;;;;;1.20;1.10;;;;;;;;;;5043724;28;20185;-59
2021/03/19 12:15:40;;;;;;;1.87;1.13;;;;;;;;;;5033921;28;20239;-59
2021/03/19 12:18:06;;;;;;;2.27;1.17;;;;;;;;;;5040033;28;20288;-59
2021/03/19 12:20:33;;;;;;;1.07;0.97;;;;;;;;;;5041956;28;20185;-62
2021/03/19 12:22:59;;;;;;;1.70;1.07;;;;;;;;;;5040569;28;20177;-59
2021/03/19 12:25:27;;;;;;;1.03;0.90;;;;;;;;;;5041224;28;20474;-60
2021/03/19 12:27:53;;;;;;;0.83;0.83;;;;;;;;;;5031621;28;20517;-60
2021/03/19 12:30:20;;;;;;;1.50;0.90;;;;;;;;;;5034740;28;20176;-59
2021/03/19 12:32:46;;;;;;;2.27;1.20;;;;;;;;;;5051671;28;20177;-58
2021/03/19 12:35:13;;;;;;;2.73;1.07;;;;;;;;;;5049480;28;20181;-60
2021/03/19 12:37:39;;;;;;;7.23;1.30;;;;;;;;;;5055077;28;20212;-59
2021/03/19 12:40:06;;;;;;;1.93;1.77;;;;;;;;;;5037677;28;20214;-59
2021/03/19 12:42:32;;;;;;;8.20;1.10;;;;;;;;;;5033569;28;20182;-60
2021/03/19 12:44:58;;;;;;;5.37;1.47;;;;;;;;;;5041499;28;20263;-59
2021/03/19 12:47:24;;;;;;;1.70;1.40;;;;;;;;;;5036494;28;20185;-60
2021/03/19 12:49:51;;;;;;;1.63;1.03;;;;;;;;;;5037948;28;20200;-60
2021/03/19 12:52:17;;;;;;;2.03;1.23;;;;;;;;;;5043786;28;20267;-59
2021/03/19 12:54:43;;;;;;;1.07;1.00;;;;;;;;;;5032137;28;20679;-60
2021/03/19 12:57:09;;;;;;;0.90;0.77;;;;;;;;;;5037223;28;20173;-59
2021/03/19 12:59:35;;;;;;;2.13;0.77;;;;;;;;;;5040668;28;20200;-61
2021/03/19 13:02:01;;;;;;;1.07;0.97;;;;;;;;;;5039909;28;20177;-60
2021/03/19 13:04:28;;;;;;;1.73;1.10;;;;;;;;;;5037777;28;20687;-59
2021/03/19 13:06:54;;;;;;;1.63;1.00;;;;;;;;;;5047947;28;20693;-60
2021/03/19 13:09:20;;;;;;;1.07;1.03;;;;;;;;;;5045257;28;20547;-61
2021/03/19 13:11:46;;;;;;;1.00;0.90;;;;;;;;;;5028881;28;20190;-59
2021/03/19 13:14:12;;;;;;;0.87;0.80;;;;;;;;;;5016332;28;20192;-60
2021/03/19 13:16:38;;;;;;;1.87;1.10;;;;;;;;;;5033149;28;20182;-60
2021/03/19 13:19:06;;;;;;;0.80;0.80;;;;;;;;;;5053714;28;20271;-60
2021/03/19 13:21:35;;;;;;;1.10;1.00;;;;;;;;;;5036864;28;20177;-62
2021/03/19 13:24:01;;;;;;;1.37;1.13;;;;;;;;;;5049831;28;20681;-60
2021/03/19 13:26:30;;;;;;;1.13;1.03;;;;;;;;;;5046094;28;20596;-60
2021/03/19 13:28:56;;;;;;;0.77;0.77;;;;;;;;;;5036726;28;20189;-61
2021/03/19 13:31:23;;;;;;;1.77;1.40;;;;;;;;;;5034065;28;20177;-61
2021/03/19 13:33:49;;;;;;;1.20;1.10;;;;;;;;;;5016531;28;20245;-61
2021/03/19 13:36:15;;;;;;;1.33;1.00;;;;;;;;;;5030357;28;20208;-61
2021/03/19 13:38:41;;;;;;;1.73;0.83;;;;;;;;;;5022562;28;20249;-61
2021/03/19 13:41:08;;;;;;;1.10;1.00;;;;;;;;;;5028816;28;20884;-61
2021/03/19 13:43:36;;;;;;;0.90;0.90;;;;;;;;;;5020086;28;20196;-62
2021/03/19 13:46:03;;;;;;;1.63;0.80;;;;;;;;;;5005513;28;20170;-61
2021/03/19 13:48:29;;;;;;;1.33;0.80;;;;;;;;;;5007025;28;20228;-61
2021/03/19 13:50:55;;;;;;;1.40;1.00;;;;;;;;;;5023280;28;20204;-61
2021/03/19 13:53:21;;;;;;;1.07;0.80;;;;;;;;;;5029191;28;20606;-61
2021/03/19 13:55:47;;;;;;;1.37;0.90;;;;;;;;;;5016796;28;20182;-60
2021/03/19 13:58:16;;;;;;;1.83;1.00;;;;;;;;;;5029935;28;20212;-61
2021/03/19 14:00:42;;;;;;;3.23;1.30;;;;;;;;;;5018544;28;20257;-60
2021/03/19 14:03:08;;;;;;;1.17;1.00;;;;;;;;;;5002631;28;21821;-59
2021/03/19 14:05:36;;;;;;;2.37;1.40;;;;;;;;;;5015402;28;20174;-60
2021/03/19 14:08:03;;;;;;;2.23;1.13;;;;;;;;;;5002424;28;20178;-60
2021/03/19 14:10:30;;;;;;;0.83;0.83;;;;;;;;;;4999959;28;20548;-60
2021/03/19 14:12:56;;;;;;;2.00;1.17;;;;;;;;;;5002195;28;20217;-61
2021/03/19 14:15:23;;;;;;;2.17;1.20;;;;;;;;;;5001475;28;20193;-60
2021/03/19 14:17:51;;;;;;;4.60;1.70;;;;;;;;;;5017342;28;20252;-63
2021/03/19 14:20:26;;;;;;;1.30;1.20;;;;;;;;;;5016532;28;20194;-62
2021/03/19 14:22:52;;;;;;;0.90;0.90;;;;;;;;;;5018395;28;20173;-59
2021/03/19 14:25:18;;;;;;;3.37;1.20;;;;;;;;;;5016367;28;20209;-59
2021/03/19 14:27:44;;;;;;;2.10;1.30;;;;;;;;;;5002726;28;20192;-59
2021/03/19 14:30:11;;;;;;;1.17;1.13;;;;;;;;;;4993705;28;20601;-61
2021/03/19 14:32:38;;;;;;;0.93;0.87;;;;;;;;;;4997904;28;20175;-59
2021/03/19 14:35:06;;;;;;;1.73;1.10;;;;;;;;;;5020295;28;20189;-60
2021/03/19 14:37:32;;;;;;;1.23;1.13;;;;;;;;;;5032829;28;20225;-59
2021/03/19 14:39:58;;;;;;;1.10;1.00;;;;;;;;;;5037142;28;20197;-60
2021/03/19 14:42:24;;;;;;;2.33;1.10;;;;;;;;;;5039945;28;20174;-59
2021/03/19 14:44:50;;;;;;;1.43;1.13;;;;;;;;;;5048756;28;20181;-62
2021/03/19 14:47:16;;;;;;;0.80;0.80;;;;;;;;;;5049833;28;20561;-60
2021/03/19 14:49:42;;;;;;;0.77;0.77;;;;;;;;;;5058028;28;20212;-59
2021/03/19 14:52:09;;;;;;;0.93;0.90;;;;;;;;;;5026926;28;20185;-59
2021/03/19 14:54:35;;;;;;;1.73;0.80;;;;;;;;;;5044204;28;20186;-60
2021/03/19 14:57:01;;;;;;;2.90;1.00;;;;;;;;;;5051038;28;20689;-60
2021/03/19 14:59:27;;;;;;;1.30;1.20;;;;;;;;;;5056089;28;20197;-60
2021/03/19 15:01:53;;;;;;;4.17;1.40;;;;;;;;;;5031514;28;20201;-60